Time;durP1;ratioP1;P1;durP2;ratioP2;P2;SDS_P1;SDS_P2;PMS_P1;PMS_P2;Temp;Humidity;BMP_temperature;BMP_pressure;BME280_temperature;BME280_humidity;BME280_pressure;Samples;Min_cycle;Max_cycle;Signal;HPM_P1;HPM_P2
2022/09/24 00:02:35;;;;;;;30.95;28.95;;;;;;;;;;10139190;28;20054;-68
2022/09/24 00:07:31;;;;;;;31.77;29.58;;;;;;;;;;10154550;28;20100;-67
2022/09/24 00:12:27;;;;;;;32.28;30.23;;;;;;;;;;10157841;28;20068;-68
2022/09/24 00:17:24;;;;;;;33.65;31.33;;;;;;;;;;10152409;28;20054;-68
2022/09/24 00:22:21;;;;;;;34.08;31.95;;;;;;;;;;10155563;28;20053;-68
2022/09/24 00:27:17;;;;;;;36.15;33.63;;;;;;;;;;10143203;28;20050;-69
2022/09/24 00:32:13;;;;;;;39.70;37.13;;;;;;;;;;10145928;28;20053;-68
2022/09/24 00:37:09;;;;;;;37.72;35.33;;;;;;;;;;10148003;28;20047;-68
2022/09/24 00:42:06;;;;;;;40.90;38.20;;;;;;;;;;10159664;28;20054;-69
2022/09/24 00:47:02;;;;;;;40.17;37.67;;;;;;;;;;10146418;28;20101;-69
2022/09/24 00:51:59;;;;;;;41.25;38.80;;;;;;;;;;10149946;28;20046;-68
2022/09/24 00:56:57;;;;;;;38.30;35.95;;;;;;;;;;10152391;28;20045;-68
2022/09/24 01:01:57;;;;;;;43.55;40.83;;;;;;;;;;10159432;28;20042;-68
2022/09/24 01:06:55;;;;;;;45.45;42.45;;;;;;;;;;10143557;28;20070;-68
2022/09/24 01:12:01;;;;;;;46.50;43.45;;;;;;;;;;10155000;28;20412;-68
2022/09/24 01:17:13;;;;;;;46.88;44.08;;;;;;;;;;10148505;28;20423;-68
2022/09/24 01:22:25;;;;;;;49.10;46.20;;;;;;;;;;10153104;28;20038;-68
2022/09/24 01:27:24;;;;;;;50.75;47.58;;;;;;;;;;10144581;28;20046;-68
2022/09/24 01:32:20;;;;;;;52.75;49.55;;;;;;;;;;10143279;28;20042;-68
2022/09/24 01:37:19;;;;;;;52.83;49.78;;;;;;;;;;10143465;28;20552;-68
2022/09/24 01:42:17;;;;;;;54.78;51.67;;;;;;;;;;10146513;28;20589;-68
2022/09/24 01:47:17;;;;;;;49.45;46.50;;;;;;;;;;10148906;28;20505;-68
2022/09/24 01:52:15;;;;;;;54.78;51.33;;;;;;;;;;10145846;28;20527;-68
2022/09/24 01:57:18;;;;;;;54.60;51.63;;;;;;;;;;10144115;28;20047;-68
2022/09/24 02:02:14;;;;;;;55.03;51.53;;;;;;;;;;10160315;28;20046;-68
2022/09/24 02:07:14;;;;;;;54.88;51.78;;;;;;;;;;10155111;28;20077;-68
2022/09/24 02:12:15;;;;;;;54.53;51.38;;;;;;;;;;10149971;28;20051;-68
2022/09/24 02:17:13;;;;;;;55.38;52.28;;;;;;;;;;10147822;28;20411;-69
2022/09/24 02:22:11;;;;;;;58.55;55.03;;;;;;;;;;10155662;28;20581;-68
2022/09/24 02:27:07;;;;;;;57.33;53.90;;;;;;;;;;10145855;28;20054;-68
2022/09/24 02:32:05;;;;;;;52.15;49.10;;;;;;;;;;10156026;28;20054;-69
2022/09/24 02:37:08;;;;;;;61.08;57.47;;;;;;;;;;10146886;28;20042;-68
2022/09/24 02:42:05;;;;;;;58.80;55.40;;;;;;;;;;10156176;28;20047;-68
2022/09/24 02:47:02;;;;;;;57.15;53.75;;;;;;;;;;10151262;28;20043;-73
2022/09/24 02:51:58;;;;;;;57.95;54.53;;;;;;;;;;10150525;28;20053;-68
2022/09/24 02:56:54;;;;;;;58.72;55.20;;;;;;;;;;10155211;28;20042;-70
2022/09/24 03:01:51;;;;;;;55.00;51.50;;;;;;;;;;10151660;28;20129;-68
2022/09/24 03:06:47;;;;;;;56.25;52.58;;;;;;;;;;10147167;28;20113;-68
2022/09/24 03:11:43;;;;;;;51.10;47.78;;;;;;;;;;10158063;28;20412;-68
2022/09/24 03:16:40;;;;;;;51.20;47.97;;;;;;;;;;10147906;28;20052;-68
2022/09/24 03:21:36;;;;;;;49.75;46.33;;;;;;;;;;10153021;28;20061;-68
2022/09/24 03:26:33;;;;;;;50.42;47.03;;;;;;;;;;10141351;28;20525;-68
2022/09/24 03:31:29;;;;;;;51.20;47.85;;;;;;;;;;10151666;28;20053;-69
2022/09/24 03:36:26;;;;;;;51.20;48.00;;;;;;;;;;10144495;28;20072;-69
2022/09/24 03:41:23;;;;;;;52.65;49.15;;;;;;;;;;10145882;28;20050;-68
2022/09/24 03:46:19;;;;;;;53.55;50.05;;;;;;;;;;10163849;28;20097;-68
2022/09/24 03:51:17;;;;;;;55.63;52.13;;;;;;;;;;10150976;28;20050;-68
2022/09/24 03:56:14;;;;;;;57.58;53.50;;;;;;;;;;10148924;28;20078;-68
2022/09/24 04:01:11;;;;;;;57.47;53.80;;;;;;;;;;10148819;28;20047;-68
2022/09/24 04:06:08;;;;;;;57.22;53.90;;;;;;;;;;10143647;28;20051;-68
2022/09/24 04:11:04;;;;;;;57.45;53.72;;;;;;;;;;10148430;28;20681;-68
2022/09/24 04:16:03;;;;;;;55.40;51.60;;;;;;;;;;10148391;28;20050;-69
2022/09/24 04:21:00;;;;;;;52.85;49.47;;;;;;;;;;10150316;28;20133;-68
2022/09/24 04:25:57;;;;;;;53.85;50.53;;;;;;;;;;10145127;28;20042;-68
2022/09/24 04:30:54;;;;;;;52.95;49.55;;;;;;;;;;10143803;28;20054;-68
2022/09/24 04:35:50;;;;;;;59.65;55.88;;;;;;;;;;10142843;28;20108;-69
2022/09/24 04:40:47;;;;;;;59.92;56.30;;;;;;;;;;10162702;28;20052;-68
2022/09/24 04:45:43;;;;;;;59.05;55.33;;;;;;;;;;10154806;28;20113;-69
2022/09/24 04:50:40;;;;;;;63.92;60.03;;;;;;;;;;10141959;28;20050;-68
2022/09/24 04:55:41;;;;;;;71.63;67.40;;;;;;;;;;10170344;28;20133;-68
2022/09/24 05:00:37;;;;;;;78.80;73.82;;;;;;;;;;10149046;28;20444;-69
2022/09/24 05:05:33;;;;;;;78.55;73.80;;;;;;;;;;10154629;28;20053;-68
2022/09/24 05:10:33;;;;;;;83.25;78.25;;;;;;;;;;10153805;28;20054;-68
2022/09/24 05:15:29;;;;;;;86.60;81.68;;;;;;;;;;10144068;28;20056;-69
2022/09/24 05:20:25;;;;;;;90.82;85.40;;;;;;;;;;10146823;28;20054;-69
2022/09/24 05:25:22;;;;;;;92.85;87.55;;;;;;;;;;10144590;28;20054;-68
2022/09/24 05:30:19;;;;;;;98.85;93.25;;;;;;;;;;10135146;28;20062;-68
2022/09/24 05:35:17;;;;;;;97.35;91.55;;;;;;;;;;10150373;28;20074;-68
2022/09/24 05:45:29;;;;;;;99.22;93.50;;;;;;;;;;10137130;28;20106;-68
2022/09/24 05:50:25;;;;;;;100.60;94.95;;;;;;;;;;10141160;28;20047;-68
2022/09/24 05:55:22;;;;;;;101.68;95.72;;;;;;;;;;10143597;28;20161;-68
2022/09/24 06:00:18;;;;;;;103.93;97.97;;;;;;;;;;10141838;28;20050;-69
2022/09/24 06:05:14;;;;;;;103.88;97.70;;;;;;;;;;10137096;28;20492;-69
2022/09/24 06:10:11;;;;;;;106.82;100.57;;;;;;;;;;10135510;28;20051;-69
2022/09/24 06:15:07;;;;;;;111.10;104.78;;;;;;;;;;10143887;28;20050;-68
2022/09/24 06:20:04;;;;;;;109.53;102.85;;;;;;;;;;10139408;28;20042;-69
2022/09/24 06:25:00;;;;;;;103.47;97.03;;;;;;;;;;10134093;28;20480;-69
2022/09/24 06:29:56;;;;;;;110.47;103.95;;;;;;;;;;10134885;28;20054;-68
2022/09/24 06:34:53;;;;;;;107.18;100.97;;;;;;;;;;10148697;28;20054;-69
2022/09/24 06:39:54;;;;;;;115.88;109.18;;;;;;;;;;10142255;28;20093;-69
2022/09/24 06:44:51;;;;;;;127.82;120.25;;;;;;;;;;10151707;28;20045;-69
2022/09/24 06:49:49;;;;;;;124.15;116.70;;;;;;;;;;10146372;28;20053;-69
2022/09/24 06:54:45;;;;;;;127.85;120.15;;;;;;;;;;10158066;28;20053;-69
2022/09/24 06:59:41;;;;;;;133.32;125.38;;;;;;;;;;10150493;28;20038;-69
2022/09/24 07:04:37;;;;;;;137.43;129.63;;;;;;;;;;10146872;28;21635;-69
2022/09/24 07:09:35;;;;;;;138.95;130.57;;;;;;;;;;10151684;28;20489;-70
2022/09/24 07:14:31;;;;;;;141.13;132.93;;;;;;;;;;10145788;28;20042;-69
2022/09/24 07:19:27;;;;;;;146.60;137.90;;;;;;;;;;10142366;28;20054;-71
2022/09/24 07:24:23;;;;;;;145.18;136.35;;;;;;;;;;10139086;28;20572;-69
2022/09/24 07:29:20;;;;;;;138.30;129.90;;;;;;;;;;10138682;28;20046;-69
2022/09/24 07:34:16;;;;;;;149.40;140.40;;;;;;;;;;10135577;28;20081;-69
2022/09/24 07:39:13;;;;;;;142.82;134.10;;;;;;;;;;10137463;28;20048;-68
2022/09/24 07:44:09;;;;;;;145.02;136.23;;;;;;;;;;10133346;28;20440;-67
2022/09/24 07:49:05;;;;;;;144.50;135.75;;;;;;;;;;10138037;28;20042;-67
2022/09/24 07:54:02;;;;;;;146.77;137.77;;;;;;;;;;10186980;28;20054;-67
2022/09/24 07:58:58;;;;;;;143.85;134.38;;;;;;;;;;10148518;28;20065;-67
2022/09/24 08:03:54;;;;;;;146.43;137.15;;;;;;;;;;10144804;28;20050;-67
2022/09/24 08:08:55;;;;;;;154.25;143.80;;;;;;;;;;10140182;28;20470;-67
2022/09/24 08:13:51;;;;;;;151.70;141.68;;;;;;;;;;10132960;28;20058;-67
2022/09/24 08:18:48;;;;;;;150.43;140.52;;;;;;;;;;10135993;28;20059;-68
2022/09/24 08:23:44;;;;;;;158.50;148.20;;;;;;;;;;10143974;28;20049;-67
2022/09/24 08:28:40;;;;;;;164.43;153.40;;;;;;;;;;10142729;28;20583;-67
2022/09/24 08:33:37;;;;;;;158.02;147.70;;;;;;;;;;10149640;28;20065;-67
2022/09/24 08:38:34;;;;;;;171.43;159.60;;;;;;;;;;10136146;28;20050;-68
2022/09/24 08:43:56;;;;;;;188.75;175.73;;;;;;;;;;10135800;28;20045;-68
2022/09/24 08:48:53;;;;;;;185.55;172.82;;;;;;;;;;10114247;28;20137;-67
2022/09/24 08:53:56;;;;;;;189.70;176.50;;;;;;;;;;10127847;28;20805;-67
2022/09/24 08:58:57;;;;;;;192.07;179.27;;;;;;;;;;10124417;28;20047;-68
2022/09/24 09:04:03;;;;;;;195.52;182.00;;;;;;;;;;10124408;28;20049;-69
2022/09/24 09:09:03;;;;;;;156.88;146.48;;;;;;;;;;10124054;28;20428;-68
2022/09/24 09:14:18;;;;;;;177.90;166.43;;;;;;;;;;10126342;28;20497;-68
2022/09/24 09:19:15;;;;;;;227.15;209.05;;;;;;;;;;10128384;28;20039;-68
2022/09/24 09:24:16;;;;;;;231.15;213.10;;;;;;;;;;10139014;28;20543;-68
2022/09/24 09:29:12;;;;;;;230.20;212.80;;;;;;;;;;10123451;28;20047;-68
2022/09/24 09:34:35;;;;;;;137.60;128.90;;;;;;;;;;10122113;28;20043;-68
2022/09/24 09:39:53;;;;;;;144.80;135.35;;;;;;;;;;10120633;28;20042;-68
2022/09/24 09:44:50;;;;;;;164.48;153.40;;;;;;;;;;10131880;28;20043;-68
2022/09/24 09:49:47;;;;;;;165.98;154.57;;;;;;;;;;10139846;28;20042;-67
2022/09/24 09:54:44;;;;;;;169.38;157.43;;;;;;;;;;10151833;28;20173;-68
2022/09/24 09:59:44;;;;;;;162.88;151.43;;;;;;;;;;10157934;28;20047;-68
2022/09/24 10:04:41;;;;;;;174.50;162.52;;;;;;;;;;10155448;28;20046;-68
2022/09/24 10:09:38;;;;;;;166.05;154.40;;;;;;;;;;10148820;28;20038;-68
2022/09/24 10:14:34;;;;;;;150.68;139.73;;;;;;;;;;10141553;28;20050;-68
2022/09/24 10:19:33;;;;;;;146.55;136.15;;;;;;;;;;10154861;28;20301;-68
2022/09/24 10:24:29;;;;;;;151.90;141.50;;;;;;;;;;10149756;28;20064;-68
2022/09/24 10:34:57;;;;;;;142.25;132.55;;;;;;;;;;10152596;28;20137;-68
2022/09/24 10:40:01;;;;;;;143.13;133.25;;;;;;;;;;10151471;28;20046;-68
2022/09/24 10:45:00;;;;;;;142.70;132.98;;;;;;;;;;10163326;28;20449;-68
2022/09/24 10:49:59;;;;;;;135.38;126.22;;;;;;;;;;10151554;28;20504;-68
2022/09/24 10:54:58;;;;;;;137.40;128.02;;;;;;;;;;10146596;28;20058;-68
2022/09/24 11:00:31;;;;;;;131.50;122.32;;;;;;;;;;10157486;28;20042;-68
2022/09/24 11:05:39;;;;;;;127.32;118.68;;;;;;;;;;10099192;28;20039;-68
2022/09/24 11:10:50;;;;;;;129.13;120.10;;;;;;;;;;10157296;28;20684;-68
2022/09/24 11:16:04;;;;;;;132.10;122.93;;;;;;;;;;10158637;28;20046;-68
2022/09/24 11:21:10;;;;;;;128.35;119.20;;;;;;;;;;10146592;28;20052;-68
2022/09/24 11:26:12;;;;;;;134.00;124.25;;;;;;;;;;10151495;28;20526;-68
2022/09/24 11:31:11;;;;;;;131.43;122.07;;;;;;;;;;10151157;28;20049;-68
2022/09/24 11:36:26;;;;;;;145.05;134.73;;;;;;;;;;10157967;28;20054;-68
2022/09/24 11:41:26;;;;;;;138.85;128.65;;;;;;;;;;10192390;28;20054;-68
2022/09/24 11:46:23;;;;;;;135.82;126.32;;;;;;;;;;10153811;28;20047;-67
2022/09/24 11:51:33;;;;;;;135.98;126.53;;;;;;;;;;10158278;28;20053;-68
2022/09/24 11:56:32;;;;;;;143.18;133.45;;;;;;;;;;10150752;28;20051;-68
2022/09/24 12:01:31;;;;;;;140.57;131.27;;;;;;;;;;10150634;28;20047;-68
2022/09/24 12:06:51;;;;;;;131.20;122.10;;;;;;;;;;10148683;28;20544;-68
2022/09/24 12:12:01;;;;;;;131.88;122.78;;;;;;;;;;10145267;28;20057;-68
2022/09/24 12:17:00;;;;;;;142.98;133.32;;;;;;;;;;10147858;28;20048;-68
2022/09/24 12:21:57;;;;;;;133.52;124.13;;;;;;;;;;10156613;28;20050;-68
2022/09/24 12:26:56;;;;;;;135.45;125.63;;;;;;;;;;10152333;28;20524;-68
2022/09/24 12:37:15;;;;;;;139.05;129.95;;;;;;;;;;10146445;28;20056;-68
2022/09/24 12:42:12;;;;;;;135.35;126.35;;;;;;;;;;10156495;28;20522;-68
2022/09/24 12:47:16;;;;;;;130.07;120.97;;;;;;;;;;10148563;28;20053;-68
2022/09/24 12:52:17;;;;;;;132.30;123.22;;;;;;;;;;10146485;28;20485;-68
2022/09/24 12:57:14;;;;;;;131.32;122.15;;;;;;;;;;10143356;28;20057;-67
2022/09/24 13:02:14;;;;;;;129.30;120.65;;;;;;;;;;10146945;28;20050;-67
2022/09/24 13:07:30;;;;;;;131.77;122.90;;;;;;;;;;10143681;28;20050;-68
2022/09/24 13:12:31;;;;;;;130.55;122.05;;;;;;;;;;10160375;28;20046;-68
2022/09/24 13:17:31;;;;;;;135.27;126.75;;;;;;;;;;10166789;28;20045;-68
2022/09/24 13:22:28;;;;;;;130.02;121.43;;;;;;;;;;10150069;28;20421;-67
2022/09/24 13:27:30;;;;;;;119.35;111.18;;;;;;;;;;10143830;28;20711;-68
2022/09/24 13:32:27;;;;;;;127.13;118.60;;;;;;;;;;10147684;28;20507;-68
2022/09/24 13:37:33;;;;;;;122.68;114.57;;;;;;;;;;10150041;28;20061;-67
2022/09/24 13:42:34;;;;;;;130.35;121.55;;;;;;;;;;10153638;28;20054;-67
2022/09/24 13:47:43;;;;;;;132.98;124.18;;;;;;;;;;10140071;28;20047;-68
2022/09/24 13:52:43;;;;;;;130.70;122.03;;;;;;;;;;10155328;28;20053;-67
2022/09/24 13:57:43;;;;;;;124.65;116.15;;;;;;;;;;10156326;28;20133;-67
2022/09/24 14:02:39;;;;;;;123.10;114.90;;;;;;;;;;10158609;28;20045;-68
2022/09/24 14:07:36;;;;;;;126.28;117.88;;;;;;;;;;10159387;28;20099;-68
2022/09/24 14:12:32;;;;;;;124.50;115.88;;;;;;;;;;10153465;28;20050;-68
2022/09/24 14:17:28;;;;;;;121.90;113.40;;;;;;;;;;10165598;28;20042;-68
2022/09/24 14:22:24;;;;;;;119.97;111.93;;;;;;;;;;10169336;28;20080;-68
2022/09/24 14:27:22;;;;;;;120.95;112.80;;;;;;;;;;10160284;28;20053;-68
2022/09/24 14:32:24;;;;;;;120.57;112.57;;;;;;;;;;10157796;28;20708;-68
2022/09/24 14:37:22;;;;;;;120.23;112.10;;;;;;;;;;10162545;28;20041;-68
2022/09/24 14:42:26;;;;;;;132.60;123.68;;;;;;;;;;10148125;28;20043;-68
2022/09/24 14:47:22;;;;;;;119.93;111.43;;;;;;;;;;10164162;28;20432;-68
2022/09/24 14:52:24;;;;;;;117.13;109.30;;;;;;;;;;10158780;28;20076;-67
2022/09/24 14:57:23;;;;;;;123.55;115.22;;;;;;;;;;10151527;28;20061;-68
2022/09/24 15:02:28;;;;;;;120.72;111.97;;;;;;;;;;10171734;28;20050;-68
2022/09/24 15:07:26;;;;;;;122.05;113.32;;;;;;;;;;10150631;28;20054;-68
2022/09/24 15:12:29;;;;;;;115.30;107.10;;;;;;;;;;10153208;28;20042;-68
2022/09/24 15:17:33;;;;;;;127.63;118.93;;;;;;;;;;10152849;28;20073;-67
2022/09/24 15:22:29;;;;;;;118.05;110.13;;;;;;;;;;10155269;28;20252;-67
2022/09/24 15:27:28;;;;;;;121.47;112.88;;;;;;;;;;10155511;28;20046;-68
2022/09/24 15:32:25;;;;;;;115.07;106.93;;;;;;;;;;10146754;28;20052;-67
2022/09/24 15:37:24;;;;;;;121.30;112.35;;;;;;;;;;10142668;28;20050;-68
2022/09/24 15:42:21;;;;;;;119.18;110.65;;;;;;;;;;10150138;28;20084;-68
2022/09/24 15:47:18;;;;;;;116.22;108.28;;;;;;;;;;10155127;28;20042;-68
2022/09/24 15:52:22;;;;;;;115.22;106.95;;;;;;;;;;10151342;28;20046;-68
2022/09/24 15:57:19;;;;;;;121.22;112.70;;;;;;;;;;10159393;28;20065;-67
2022/09/24 16:02:16;;;;;;;126.97;118.47;;;;;;;;;;10149939;28;20057;-68
2022/09/24 16:07:12;;;;;;;126.15;117.18;;;;;;;;;;10155605;28;20523;-68
2022/09/24 16:12:12;;;;;;;119.90;110.78;;;;;;;;;;10146288;28;20437;-68
2022/09/24 16:17:09;;;;;;;120.97;112.53;;;;;;;;;;10157477;28;20046;-68
2022/09/24 16:22:05;;;;;;;111.07;103.07;;;;;;;;;;10156876;28;20050;-68
2022/09/24 16:27:01;;;;;;;114.30;106.35;;;;;;;;;;10146224;28;20050;-68
2022/09/24 16:31:57;;;;;;;122.20;113.03;;;;;;;;;;10144393;28;20494;-67
2022/09/24 16:36:54;;;;;;;116.10;107.38;;;;;;;;;;10145817;28;20054;-67
2022/09/24 16:41:50;;;;;;;116.00;107.30;;;;;;;;;;10149620;28;20397;-68
2022/09/24 16:46:46;;;;;;;110.28;102.57;;;;;;;;;;10149918;28;20719;-67
2022/09/24 16:51:44;;;;;;;117.40;108.93;;;;;;;;;;10136316;28;20038;-68
2022/09/24 16:56:40;;;;;;;115.00;106.90;;;;;;;;;;10156808;28;20102;-68
2022/09/24 17:01:38;;;;;;;114.10;106.32;;;;;;;;;;10133486;28;20518;-67
2022/09/24 17:06:35;;;;;;;116.35;107.47;;;;;;;;;;10159259;28;20046;-68
2022/09/24 17:11:32;;;;;;;119.07;110.35;;;;;;;;;;10153235;28;20085;-68
2022/09/24 17:16:29;;;;;;;121.90;111.68;;;;;;;;;;10154266;28;20050;-68
2022/09/24 17:21:25;;;;;;;119.68;110.55;;;;;;;;;;10150658;28;20065;-68
2022/09/24 17:26:21;;;;;;;113.32;104.82;;;;;;;;;;10143540;28;20042;-67
2022/09/24 17:31:20;;;;;;;118.82;110.03;;;;;;;;;;10145288;28;20501;-68
2022/09/24 17:36:16;;;;;;;117.75;109.40;;;;;;;;;;10175808;28;20505;-68
2022/09/24 17:41:13;;;;;;;118.43;109.63;;;;;;;;;;10150761;28;20054;-68
2022/09/24 17:46:10;;;;;;;119.25;110.65;;;;;;;;;;10148262;28;20069;-68
2022/09/24 17:51:10;;;;;;;116.38;107.82;;;;;;;;;;10146790;28;20046;-68
2022/09/24 17:56:09;;;;;;;119.20;109.97;;;;;;;;;;10149002;28;20050;-68
2022/09/24 18:01:22;;;;;;;118.43;109.90;;;;;;;;;;10136129;28;20053;-68
2022/09/24 18:06:18;;;;;;;119.85;111.07;;;;;;;;;;10148682;28;20039;-68
2022/09/24 18:11:16;;;;;;;120.90;111.63;;;;;;;;;;10139977;28;20053;-67
2022/09/24 18:16:14;;;;;;;122.97;113.88;;;;;;;;;;10150300;28;20397;-68
2022/09/24 18:21:11;;;;;;;122.03;112.95;;;;;;;;;;10139075;28;20109;-68
2022/09/24 18:26:10;;;;;;;123.07;114.15;;;;;;;;;;10143079;28;20439;-68
2022/09/24 18:31:08;;;;;;;123.53;114.68;;;;;;;;;;10137890;28;20460;-67
2022/09/24 18:36:09;;;;;;;124.35;115.00;;;;;;;;;;10137243;28;20046;-68
2022/09/24 18:41:12;;;;;;;123.50;114.57;;;;;;;;;;10158076;28;20053;-67
2022/09/24 18:46:10;;;;;;;124.30;114.70;;;;;;;;;;10149613;28;20666;-68
2022/09/24 18:51:16;;;;;;;127.03;117.22;;;;;;;;;;10144228;28;20472;-68
2022/09/24 18:56:12;;;;;;;125.72;116.22;;;;;;;;;;10157162;28;20051;-68
2022/09/24 19:01:08;;;;;;;122.43;113.40;;;;;;;;;;10149622;28;20046;-68
2022/09/24 19:06:06;;;;;;;125.82;116.25;;;;;;;;;;10151376;28;20052;-68
2022/09/24 19:11:08;;;;;;;121.88;112.85;;;;;;;;;;10151236;28;20053;-68
2022/09/24 19:16:09;;;;;;;127.18;117.63;;;;;;;;;;10142427;28;20047;-68
2022/09/24 19:21:06;;;;;;;123.63;114.30;;;;;;;;;;10158879;28;20800;-69
2022/09/24 19:26:03;;;;;;;124.40;115.07;;;;;;;;;;10154373;28;20049;-68
2022/09/24 19:31:00;;;;;;;124.45;115.20;;;;;;;;;;10140920;28;20039;-69
2022/09/24 19:35:57;;;;;;;122.95;113.78;;;;;;;;;;10140459;28;20054;-68
2022/09/24 19:40:54;;;;;;;121.15;112.75;;;;;;;;;;10153903;28;20056;-68
2022/09/24 19:45:58;;;;;;;126.20;117.00;;;;;;;;;;10144449;28;20070;-68
2022/09/24 19:50:58;;;;;;;125.57;116.40;;;;;;;;;;10151712;28;20046;-68
2022/09/24 19:55:55;;;;;;;128.38;118.95;;;;;;;;;;10145185;28;20038;-68
2022/09/24 20:00:58;;;;;;;120.95;112.57;;;;;;;;;;10150802;28;20045;-68
2022/09/24 20:05:54;;;;;;;126.30;117.00;;;;;;;;;;10141652;28;20043;-68
2022/09/24 20:10:51;;;;;;;123.03;114.30;;;;;;;;;;10148595;28;20069;-68
2022/09/24 20:15:55;;;;;;;122.10;113.57;;;;;;;;;;10160229;28;20072;-67
2022/09/24 20:20:53;;;;;;;122.60;113.30;;;;;;;;;;10149751;28;20057;-68
2022/09/24 20:31:09;;;;;;;120.75;112.28;;;;;;;;;;10150976;28;20467;-68
2022/09/24 20:36:06;;;;;;;120.78;112.00;;;;;;;;;;10136817;28;20524;-68
2022/09/24 20:41:12;;;;;;;122.30;113.05;;;;;;;;;;10148973;28;20047;-68
2022/09/24 20:46:14;;;;;;;121.57;113.20;;;;;;;;;;10149750;28;20038;-68
2022/09/24 20:51:12;;;;;;;126.22;116.43;;;;;;;;;;10139307;28;20050;-67
2022/09/24 20:56:08;;;;;;;121.80;112.95;;;;;;;;;;10181334;28;20054;-67
2022/09/24 21:01:06;;;;;;;124.38;114.93;;;;;;;;;;10149164;28;20038;-68
2022/09/24 21:06:03;;;;;;;121.20;112.50;;;;;;;;;;10149728;28;20034;-68
2022/09/24 21:11:00;;;;;;;121.00;112.07;;;;;;;;;;10144348;28;20045;-68
2022/09/24 21:16:03;;;;;;;120.75;112.30;;;;;;;;;;10162687;28;20396;-68
2022/09/24 21:21:07;;;;;;;116.78;108.30;;;;;;;;;;10151694;28;20042;-68
2022/09/24 21:26:14;;;;;;;121.35;112.93;;;;;;;;;;10143793;28;20060;-68
2022/09/24 21:31:10;;;;;;;123.15;114.40;;;;;;;;;;10131569;28;20057;-68
2022/09/24 21:36:07;;;;;;;121.72;112.90;;;;;;;;;;10150760;28;20054;-67
2022/09/24 21:41:05;;;;;;;124.22;114.90;;;;;;;;;;10145466;28;20049;-68
2022/09/24 21:46:04;;;;;;;125.50;116.25;;;;;;;;;;10145277;28;20039;-68
2022/09/24 21:51:04;;;;;;;121.28;112.10;;;;;;;;;;10140880;28;20129;-68
2022/09/24 21:56:01;;;;;;;123.07;113.90;;;;;;;;;;10145198;28;20552;-68
2022/09/24 22:01:00;;;;;;;127.35;118.03;;;;;;;;;;10148432;28;20062;-68
2022/09/24 22:06:02;;;;;;;120.85;112.30;;;;;;;;;;10144960;28;20050;-68
2022/09/24 22:10:59;;;;;;;125.00;116.03;;;;;;;;;;10149004;28;20531;-68
2022/09/24 22:15:56;;;;;;;123.45;114.22;;;;;;;;;;10161670;28;20042;-68
2022/09/24 22:20:53;;;;;;;122.13;112.63;;;;;;;;;;10149075;28;20121;-68
2022/09/24 22:25:54;;;;;;;121.50;113.15;;;;;;;;;;10155946;28;20038;-68
2022/09/24 22:30:51;;;;;;;122.57;113.88;;;;;;;;;;10150034;28;20082;-68
2022/09/24 22:35:48;;;;;;;118.25;110.00;;;;;;;;;;10164862;28;20041;-68
2022/09/24 22:40:44;;;;;;;121.53;112.95;;;;;;;;;;10151126;28;20122;-68
2022/09/24 22:45:42;;;;;;;116.30;108.40;;;;;;;;;;10154009;28;20061;-68
2022/09/24 22:50:38;;;;;;;117.65;109.60;;;;;;;;;;10150360;28;20039;-68
2022/09/24 22:55:34;;;;;;;122.85;114.55;;;;;;;;;;10152280;28;20716;-68
2022/09/24 23:00:32;;;;;;;118.28;109.82;;;;;;;;;;10156840;28;20133;-68
2022/09/24 23:05:32;;;;;;;118.68;110.57;;;;;;;;;;10140302;28;20649;-68
2022/09/24 23:10:28;;;;;;;124.18;115.63;;;;;;;;;;10159489;28;20038;-68
2022/09/24 23:15:25;;;;;;;121.25;112.75;;;;;;;;;;10144520;28;20050;-68
2022/09/24 23:20:21;;;;;;;125.47;116.22;;;;;;;;;;10158862;28;20053;-68
2022/09/24 23:25:17;;;;;;;122.68;114.50;;;;;;;;;;10145996;28;20126;-68
2022/09/24 23:30:14;;;;;;;119.53;111.22;;;;;;;;;;10147090;28;20049;-68
2022/09/24 23:35:10;;;;;;;121.97;113.45;;;;;;;;;;10152260;28;20058;-68
2022/09/24 23:40:07;;;;;;;118.43;110.10;;;;;;;;;;10152365;28;20058;-68
2022/09/24 23:45:03;;;;;;;121.80;113.30;;;;;;;;;;10154926;28;20046;-68
2022/09/24 23:50:00;;;;;;;123.95;115.70;;;;;;;;;;10147722;28;20053;-68
2022/09/24 23:54:56;;;;;;;124.28;115.88;;;;;;;;;;10144061;28;20530;-68
2022/09/24 23:59:52;;;;;;;123.93;115.28;;;;;;;;;;10143345;28;20058;-68
